Etihad Airways Virtual Airport Information Service

London Heathrow Airport

ICAO: EGLL Country: United Kingdom
Latitude: 51.4775 Longitude: -0.46138
Latest Arrival : ETD19 (OMAA-EGLL) Latest Departure : ETD20 (EGLL-OMAA)


WX CaptureLIVE
Data provided by noaa.gov | Recorded at 22:30:17

METAR : EGLL 182220Z AUTO 10003KT 9999 NCD 18/11 Q1013

TAF : EGLL 181805Z 1818/1924 16010KT 9999 FEW040 BECMG 1818/1821 10003KT PROB30 TEMPO 1900/1906 7000 PROB40 TEMPO 1906/1909 7000 RA BKN012 BECMG 1907/1910 31010KT TEMPO 1909/1918 7000 RA SHRA BKN012 PROB30 TEMPO 1909/1918 4000 +SHRA BKN008 PROB30 TEMPO 1918/1924 8000 -RA BKN008


Runway Data for EGLL
Data provided by openaviationdata.com

Runway ID Mag Var Hdg Length Elevation Surface ILS Freq ILS Id ILS Slope

London Heathrow Airport, United Kingdom
Use only for reference purposes